メインページ
METAR-TAF:

METAR-TAF

空港 :

ウィーン国際空港

ウィーン, オーストリア

緯度: 48-07N, 経度: 016-34E, 海抜: 183m

現時点の気象観測

当レポートは31分前の10:50(UTC)に作成
北/北西の風 7kt
気温 12°C
湿度 62%
気圧 1031 hPa
視程10km以上
高度2600ftの雲はほとんどない
高度30000ftの雲は散在している

METAR: LOWW 141050Z 33007KT 9999 FEW026 SCT300 12/05 Q1031 NOSIG

時間: 12:21 (11:21 UTC)

予報

当レポートは3時間6分前の08:15(UTC)に作成
予報は14日の 09時(UTC)から 15日の 15時(UTC)まで有効
北西の風 8kt
視程10km以上
1,500メートル以下は雲なし、積乱雲なし
14日の 09時(UTC)から 14日の 13時(UTC)まで一時的に
北西の風 15kt
14日の 22時(UTC)から 14日の 24時(UTC)まで徐々に
北/北東の風 3kt
15日の 03時(UTC)から 15日の 07時(UTC)まで一時的に
視程: 5000m
浅い霧

TAF: LOWW 140815Z 1409/1515 31008KT CAVOK TX13/1411Z TNM01/1505Z TEMPO 1409/1413 32015KT BECMG 1422/1424 02003KT TEMPO 1503/1507 5000 MIFG NSC

4,000以上の空港の気象観測と天気予報(METAR報とTAF報)

利用可能な観測所は地図上に黄色い丸と赤い丸で示す。

丸の上にカーソルを重ねると観測所名を参照できる。

次にクリックすると気象観測と天気予報を参照できる。

マップの切り替え:黒色「×」印の緑ボタンをクリックして拡大、「-」印の緑ボタンをクリックして縮小、緑色の三角印をクリックして隣りの地図に切り替え


METAR-TAF: